sensor_id;sensor_type;location;lat;lon;timestamp;P1;durP1;ratioP1;P2;durP2;ratioP2
4355;SDS011;64374;51.482;7.408;2023-11-18T00:02:26;31.97;;;19.07;;
4355;SDS011;64374;51.482;7.408;2023-11-18T00:05:13;34.00;;;20.42;;
4355;SDS011;64374;51.482;7.408;2023-11-18T00:08:00;32.53;;;19.35;;
4355;SDS011;64374;51.482;7.408;2023-11-18T00:10:47;28.33;;;18.30;;
4355;SDS011;64374;51.482;7.408;2023-11-18T00:13:38;30.40;;;19.25;;
4355;SDS011;64374;51.482;7.408;2023-11-18T00:16:27;30.17;;;18.30;;
4355;SDS011;64374;51.482;7.408;2023-11-18T00:19:15;29.48;;;18.02;;
4355;SDS011;64374;51.482;7.408;2023-11-18T00:22:03;30.67;;;18.13;;
4355;SDS011;64374;51.482;7.408;2023-11-18T00:24:51;27.23;;;17.45;;
4355;SDS011;64374;51.482;7.408;2023-11-18T00:27:49;29.23;;;18.10;;
4355;SDS011;64374;51.482;7.408;2023-11-18T00:30:43;30.17;;;17.25;;
4355;SDS011;64374;51.482;7.408;2023-11-18T00:33:29;25.38;;;16.52;;
4355;SDS011;64374;51.482;7.408;2023-11-18T00:35:58;27.08;;;17.17;;
4355;SDS011;64374;51.482;7.408;2023-11-18T00:38:29;25.85;;;16.63;;
4355;SDS011;64374;51.482;7.408;2023-11-18T00:41:00;28.80;;;17.63;;
4355;SDS011;64374;51.482;7.408;2023-11-18T00:43:28;25.98;;;16.67;;
4355;SDS011;64374;51.482;7.408;2023-11-18T00:46:02;25.13;;;16.90;;
4355;SDS011;64374;51.482;7.408;2023-11-18T00:48:38;26.27;;;17.00;;
4355;SDS011;64374;51.482;7.408;2023-11-18T00:51:10;27.13;;;16.23;;
4355;SDS011;64374;51.482;7.408;2023-11-18T00:53:39;28.33;;;17.00;;
4355;SDS011;64374;51.482;7.408;2023-11-18T00:56:25;26.90;;;17.25;;
4355;SDS011;64374;51.482;7.408;2023-11-18T00:59:13;27.83;;;16.92;;
4355;SDS011;64374;51.482;7.408;2023-11-18T01:02:02;25.43;;;15.30;;
4355;SDS011;64374;51.482;7.408;2023-11-18T01:04:50;23.75;;;15.77;;
4355;SDS011;64374;51.482;7.408;2023-11-18T01:07:37;27.20;;;16.73;;
4355;SDS011;64374;51.482;7.408;2023-11-18T01:10:27;25.63;;;15.80;;
4355;SDS011;64374;51.482;7.408;2023-11-18T01:13:14;23.90;;;15.03;;
4355;SDS011;64374;51.482;7.408;2023-11-18T01:16:01;25.58;;;15.85;;
4355;SDS011;64374;51.482;7.408;2023-11-18T01:18:50;25.77;;;16.60;;
4355;SDS011;64374;51.482;7.408;2023-11-18T01:21:42;20.23;;;13.38;;
4355;SDS011;64374;51.482;7.408;2023-11-18T01:24:29;24.77;;;14.40;;
4355;SDS011;64374;51.482;7.408;2023-11-18T01:27:15;24.42;;;14.85;;
4355;SDS011;64374;51.482;7.408;2023-11-18T01:30:04;22.35;;;14.52;;
4355;SDS011;64374;51.482;7.408;2023-11-18T01:32:52;22.10;;;13.90;;
4355;SDS011;64374;51.482;7.408;2023-11-18T01:35:43;21.75;;;13.93;;
4355;SDS011;64374;51.482;7.408;2023-11-18T01:38:29;22.63;;;14.90;;
4355;SDS011;64374;51.482;7.408;2023-11-18T01:41:19;21.65;;;14.10;;
4355;SDS011;64374;51.482;7.408;2023-11-18T01:44:06;20.48;;;13.40;;
4355;SDS011;64374;51.482;7.408;2023-11-18T01:46:54;19.70;;;13.02;;
4355;SDS011;64374;51.482;7.408;2023-11-18T01:49:41;17.40;;;11.88;;
4355;SDS011;64374;51.482;7.408;2023-11-18T01:52:30;19.52;;;12.65;;
4355;SDS011;64374;51.482;7.408;2023-11-18T01:55:17;19.02;;;12.55;;
4355;SDS011;64374;51.482;7.408;2023-11-18T01:58:04;19.30;;;12.93;;
4355;SDS011;64374;51.482;7.408;2023-11-18T02:00:55;18.73;;;12.55;;
4355;SDS011;64374;51.482;7.408;2023-11-18T02:03:43;18.17;;;12.65;;
4355;SDS011;64374;51.482;7.408;2023-11-18T02:06:31;22.42;;;14.65;;
4355;SDS011;64374;51.482;7.408;2023-11-18T02:09:19;18.80;;;13.40;;
4355;SDS011;64374;51.482;7.408;2023-11-18T02:12:16;16.95;;;12.85;;
4355;SDS011;64374;51.482;7.408;2023-11-18T02:15:08;19.17;;;13.27;;
4355;SDS011;64374;51.482;7.408;2023-11-18T02:17:58;20.08;;;13.15;;
4355;SDS011;64374;51.482;7.408;2023-11-18T02:20:29;21.20;;;12.80;;
4355;SDS011;64374;51.482;7.408;2023-11-18T02:22:58;19.23;;;12.18;;
4355;SDS011;64374;51.482;7.408;2023-11-18T02:25:33;17.23;;;11.95;;
4355;SDS011;64374;51.482;7.408;2023-11-18T02:28:11;21.30;;;13.25;;
4355;SDS011;64374;51.482;7.408;2023-11-18T02:30:39;21.77;;;12.93;;
4355;SDS011;64374;51.482;7.408;2023-11-18T02:33:10;19.17;;;12.40;;
4355;SDS011;64374;51.482;7.408;2023-11-18T02:35:46;20.55;;;12.60;;
4355;SDS011;64374;51.482;7.408;2023-11-18T02:38:19;21.25;;;13.07;;
4355;SDS011;64374;51.482;7.408;2023-11-18T02:40:51;20.80;;;12.93;;
4355;SDS011;64374;51.482;7.408;2023-11-18T02:43:26;20.75;;;13.10;;
4355;SDS011;64374;51.482;7.408;2023-11-18T02:45:55;17.27;;;12.20;;
4355;SDS011;64374;51.482;7.408;2023-11-18T02:48:26;19.05;;;13.20;;
4355;SDS011;64374;51.482;7.408;2023-11-18T02:51:03;20.87;;;12.97;;
4355;SDS011;64374;51.482;7.408;2023-11-18T02:53:34;20.42;;;12.95;;
4355;SDS011;64374;51.482;7.408;2023-11-18T02:56:21;18.55;;;12.75;;
4355;SDS011;64374;51.482;7.408;2023-11-18T02:59:12;19.85;;;13.75;;
4355;SDS011;64374;51.482;7.408;2023-11-18T03:01:59;18.15;;;12.10;;
4355;SDS011;64374;51.482;7.408;2023-11-18T03:04:47;19.80;;;13.77;;
4355;SDS011;64374;51.482;7.408;2023-11-18T03:07:34;20.27;;;12.35;;
4355;SDS011;64374;51.482;7.408;2023-11-18T03:10:21;17.83;;;12.30;;
4355;SDS011;64374;51.482;7.408;2023-11-18T03:13:08;19.55;;;12.32;;
4355;SDS011;64374;51.482;7.408;2023-11-18T03:15:58;18.02;;;11.90;;
4355;SDS011;64374;51.482;7.408;2023-11-18T03:18:46;16.60;;;11.67;;
4355;SDS011;64374;51.482;7.408;2023-11-18T03:21:35;18.10;;;11.43;;
4355;SDS011;64374;51.482;7.408;2023-11-18T03:24:24;14.93;;;10.97;;
4355;SDS011;64374;51.482;7.408;2023-11-18T03:27:11;15.88;;;10.75;;
4355;SDS011;64374;51.482;7.408;2023-11-18T03:30:05;16.90;;;11.35;;
4355;SDS011;64374;51.482;7.408;2023-11-18T03:32:55;15.55;;;11.00;;
4355;SDS011;64374;51.482;7.408;2023-11-18T03:35:42;16.77;;;11.20;;
4355;SDS011;64374;51.482;7.408;2023-11-18T03:38:28;17.35;;;11.18;;
4355;SDS011;64374;51.482;7.408;2023-11-18T03:41:15;16.48;;;11.30;;
4355;SDS011;64374;51.482;7.408;2023-11-18T03:44:02;18.10;;;12.07;;
4355;SDS011;64374;51.482;7.408;2023-11-18T03:46:48;14.30;;;10.10;;
4355;SDS011;64374;51.482;7.408;2023-11-18T03:49:36;14.00;;;10.10;;
4355;SDS011;64374;51.482;7.408;2023-11-18T03:52:23;13.83;;;10.60;;
4355;SDS011;64374;51.482;7.408;2023-11-18T03:55:11;14.52;;;9.77;;
4355;SDS011;64374;51.482;7.408;2023-11-18T03:57:39;14.50;;;9.98;;
4355;SDS011;64374;51.482;7.408;2023-11-18T04:00:08;15.40;;;9.88;;
4355;SDS011;64374;51.482;7.408;2023-11-18T04:02:39;13.48;;;10.05;;
4355;SDS011;64374;51.482;7.408;2023-11-18T04:05:32;15.70;;;10.57;;
4355;SDS011;64374;51.482;7.408;2023-11-18T04:08:19;15.27;;;10.40;;
4355;SDS011;64374;51.482;7.408;2023-11-18T04:11:06;12.85;;;9.77;;
4355;SDS011;64374;51.482;7.408;2023-11-18T04:13:55;15.93;;;10.80;;
4355;SDS011;64374;51.482;7.408;2023-11-18T04:16:44;14.80;;;10.00;;
4355;SDS011;64374;51.482;7.408;2023-11-18T04:19:31;14.25;;;10.00;;
4355;SDS011;64374;51.482;7.408;2023-11-18T04:22:19;17.30;;;11.30;;
4355;SDS011;64374;51.482;7.408;2023-11-18T04:25:07;13.35;;;10.23;;
4355;SDS011;64374;51.482;7.408;2023-11-18T04:27:54;15.68;;;10.68;;
4355;SDS011;64374;51.482;7.408;2023-11-18T04:30:41;14.70;;;10.97;;
4355;SDS011;64374;51.482;7.408;2023-11-18T04:33:30;15.65;;;10.68;;
4355;SDS011;64374;51.482;7.408;2023-11-18T04:36:18;15.60;;;10.40;;
4355;SDS011;64374;51.482;7.408;2023-11-18T04:39:16;15.30;;;10.07;;
4355;SDS011;64374;51.482;7.408;2023-11-18T04:42:04;14.38;;;9.88;;
4355;SDS011;64374;51.482;7.408;2023-11-18T04:44:54;15.30;;;10.45;;
4355;SDS011;64374;51.482;7.408;2023-11-18T04:47:40;14.07;;;9.98;;
4355;SDS011;64374;51.482;7.408;2023-11-18T04:50:10;13.93;;;10.32;;
4355;SDS011;64374;51.482;7.408;2023-11-18T04:52:38;14.30;;;10.50;;
4355;SDS011;64374;51.482;7.408;2023-11-18T04:55:20;13.33;;;9.10;;
4355;SDS011;64374;51.482;7.408;2023-11-18T04:57:52;15.13;;;10.55;;
4355;SDS011;64374;51.482;7.408;2023-11-18T05:00:32;14.38;;;10.00;;
4355;SDS011;64374;51.482;7.408;2023-11-18T05:03:00;12.20;;;9.50;;
4355;SDS011;64374;51.482;7.408;2023-11-18T05:05:30;14.82;;;10.45;;
4355;SDS011;64374;51.482;7.408;2023-11-18T05:07:58;13.55;;;9.60;;
4355;SDS011;64374;51.482;7.408;2023-11-18T05:10:31;15.38;;;10.38;;
4355;SDS011;64374;51.482;7.408;2023-11-18T05:12:59;15.73;;;10.52;;
4355;SDS011;64374;51.482;7.408;2023-11-18T05:15:28;17.15;;;10.55;;
4355;SDS011;64374;51.482;7.408;2023-11-18T05:18:15;12.98;;;10.30;;
4355;SDS011;64374;51.482;7.408;2023-11-18T05:21:03;15.88;;;10.60;;
4355;SDS011;64374;51.482;7.408;2023-11-18T05:23:51;13.27;;;9.55;;
4355;SDS011;64374;51.482;7.408;2023-11-18T05:26:49;14.80;;;9.70;;
4355;SDS011;64374;51.482;7.408;2023-11-18T05:29:17;14.25;;;9.85;;
4355;SDS011;64374;51.482;7.408;2023-11-18T05:31:47;16.50;;;10.63;;
4355;SDS011;64374;51.482;7.408;2023-11-18T05:34:22;12.73;;;9.88;;
4355;SDS011;64374;51.482;7.408;2023-11-18T05:36:51;15.02;;;10.00;;
4355;SDS011;64374;51.482;7.408;2023-11-18T05:39:20;13.85;;;10.00;;
4355;SDS011;64374;51.482;7.408;2023-11-18T05:42:00;13.98;;;9.40;;
4355;SDS011;64374;51.482;7.408;2023-11-18T05:44:29;12.45;;;9.70;;
4355;SDS011;64374;51.482;7.408;2023-11-18T05:47:25;15.57;;;11.43;;
4355;SDS011;64374;51.482;7.408;2023-11-18T05:50:12;13.60;;;9.60;;
4355;SDS011;64374;51.482;7.408;2023-11-18T05:53:00;15.05;;;10.50;;
4355;SDS011;64374;51.482;7.408;2023-11-18T05:55:46;14.63;;;10.48;;
4355;SDS011;64374;51.482;7.408;2023-11-18T05:58:38;14.00;;;9.75;;
4355;SDS011;64374;51.482;7.408;2023-11-18T06:01:25;15.65;;;10.38;;
4355;SDS011;64374;51.482;7.408;2023-11-18T06:04:15;13.63;;;10.37;;
4355;SDS011;64374;51.482;7.408;2023-11-18T06:07:03;15.63;;;11.00;;
4355;SDS011;64374;51.482;7.408;2023-11-18T06:09:51;14.85;;;11.30;;
4355;SDS011;64374;51.482;7.408;2023-11-18T06:12:37;13.48;;;11.05;;
4355;SDS011;64374;51.482;7.408;2023-11-18T06:15:29;14.95;;;11.38;;
4355;SDS011;64374;51.482;7.408;2023-11-18T06:18:16;12.10;;;9.98;;
4355;SDS011;64374;51.482;7.408;2023-11-18T06:21:06;14.73;;;10.60;;
4355;SDS011;64374;51.482;7.408;2023-11-18T06:23:56;15.70;;;11.73;;
4355;SDS011;64374;51.482;7.408;2023-11-18T06:26:44;15.43;;;10.68;;
4355;SDS011;64374;51.482;7.408;2023-11-18T06:29:31;14.95;;;10.20;;
4355;SDS011;64374;51.482;7.408;2023-11-18T06:32:20;15.10;;;10.90;;
4355;SDS011;64374;51.482;7.408;2023-11-18T06:35:16;15.02;;;10.50;;
4355;SDS011;64374;51.482;7.408;2023-11-18T06:38:07;14.75;;;10.73;;
4355;SDS011;64374;51.482;7.408;2023-11-18T06:40:57;13.77;;;10.10;;
4355;SDS011;64374;51.482;7.408;2023-11-18T06:43:51;16.25;;;10.73;;
4355;SDS011;64374;51.482;7.408;2023-11-18T06:46:46;14.90;;;10.77;;
4355;SDS011;64374;51.482;7.408;2023-11-18T06:49:37;14.03;;;10.20;;
4355;SDS011;64374;51.482;7.408;2023-11-18T06:52:26;13.93;;;10.57;;
4355;SDS011;64374;51.482;7.408;2023-11-18T06:55:14;15.77;;;11.10;;
4355;SDS011;64374;51.482;7.408;2023-11-18T06:58:01;14.43;;;10.30;;
4355;SDS011;64374;51.482;7.408;2023-11-18T07:00:48;14.50;;;10.95;;
4355;SDS011;64374;51.482;7.408;2023-11-18T07:03:34;14.80;;;11.10;;
4355;SDS011;64374;51.482;7.408;2023-11-18T07:06:25;13.10;;;10.67;;
4355;SDS011;64374;51.482;7.408;2023-11-18T07:09:14;14.75;;;10.25;;
4355;SDS011;64374;51.482;7.408;2023-11-18T07:11:52;14.50;;;10.80;;
4355;SDS011;64374;51.482;7.408;2023-11-18T07:14:22;16.77;;;10.60;;
4355;SDS011;64374;51.482;7.408;2023-11-18T07:16:52;16.03;;;10.53;;
4355;SDS011;64374;51.482;7.408;2023-11-18T07:19:20;19.45;;;13.07;;
4355;SDS011;64374;51.482;7.408;2023-11-18T07:21:51;13.80;;;9.95;;
4355;SDS011;64374;51.482;7.408;2023-11-18T07:24:19;16.80;;;11.48;;
4355;SDS011;64374;51.482;7.408;2023-11-18T07:26:56;15.13;;;10.95;;
4355;SDS011;64374;51.482;7.408;2023-11-18T07:29:27;17.80;;;12.20;;
4355;SDS011;64374;51.482;7.408;2023-11-18T07:31:56;14.15;;;10.77;;
4355;SDS011;64374;51.482;7.408;2023-11-18T07:34:25;15.77;;;11.00;;
4355;SDS011;64374;51.482;7.408;2023-11-18T07:36:54;16.63;;;11.50;;
4355;SDS011;64374;51.482;7.408;2023-11-18T07:39:22;18.02;;;11.90;;
4355;SDS011;64374;51.482;7.408;2023-11-18T07:42:11;16.52;;;11.50;;
4355;SDS011;64374;51.482;7.408;2023-11-18T07:44:44;15.05;;;11.90;;
4355;SDS011;64374;51.482;7.408;2023-11-18T07:47:12;15.73;;;10.80;;
4355;SDS011;64374;51.482;7.408;2023-11-18T07:49:42;16.30;;;10.48;;
4355;SDS011;64374;51.482;7.408;2023-11-18T07:52:13;17.33;;;11.50;;
4355;SDS011;64374;51.482;7.408;2023-11-18T07:54:41;16.00;;;11.20;;
4355;SDS011;64374;51.482;7.408;2023-11-18T07:57:15;15.93;;;11.50;;
4355;SDS011;64374;51.482;7.408;2023-11-18T07:59:43;17.60;;;11.30;;
4355;SDS011;64374;51.482;7.408;2023-11-18T08:02:11;13.40;;;10.07;;
4355;SDS011;64374;51.482;7.408;2023-11-18T08:04:43;14.50;;;11.25;;
4355;SDS011;64374;51.482;7.408;2023-11-18T08:07:11;16.57;;;11.43;;
4355;SDS011;64374;51.482;7.408;2023-11-18T08:10:02;14.90;;;10.88;;
4355;SDS011;64374;51.482;7.408;2023-11-18T08:12:58;74.70;;;14.45;;
4355;SDS011;64374;51.482;7.408;2023-11-18T08:15:44;18.00;;;11.70;;
4355;SDS011;64374;51.482;7.408;2023-11-18T08:18:31;12.03;;;10.20;;
4355;SDS011;64374;51.482;7.408;2023-11-18T08:21:26;14.87;;;10.57;;
4355;SDS011;64374;51.482;7.408;2023-11-18T08:24:14;14.93;;;11.05;;
4355;SDS011;64374;51.482;7.408;2023-11-18T08:27:01;15.05;;;11.27;;
4355;SDS011;64374;51.482;7.408;2023-11-18T08:29:49;15.80;;;11.10;;
4355;SDS011;64374;51.482;7.408;2023-11-18T08:32:36;13.77;;;10.50;;
4355;SDS011;64374;51.482;7.408;2023-11-18T08:35:33;16.47;;;10.80;;
4355;SDS011;64374;51.482;7.408;2023-11-18T08:38:21;15.07;;;11.32;;
4355;SDS011;64374;51.482;7.408;2023-11-18T08:41:10;15.38;;;10.70;;
4355;SDS011;64374;51.482;7.408;2023-11-18T08:43:58;14.48;;;10.65;;
4355;SDS011;64374;51.482;7.408;2023-11-18T08:47:04;15.40;;;10.07;;
4355;SDS011;64374;51.482;7.408;2023-11-18T08:49:54;15.23;;;10.33;;
4355;SDS011;64374;51.482;7.408;2023-11-18T08:52:41;15.97;;;10.53;;
4355;SDS011;64374;51.482;7.408;2023-11-18T08:55:32;16.27;;;9.95;;
4355;SDS011;64374;51.482;7.408;2023-11-18T08:58:29;13.10;;;9.20;;
4355;SDS011;64374;51.482;7.408;2023-11-18T09:01:19;12.15;;;8.85;;
4355;SDS011;64374;51.482;7.408;2023-11-18T09:04:08;12.37;;;9.43;;
4355;SDS011;64374;51.482;7.408;2023-11-18T09:06:57;12.43;;;9.10;;
4355;SDS011;64374;51.482;7.408;2023-11-18T09:09:46;13.05;;;9.25;;
4355;SDS011;64374;51.482;7.408;2023-11-18T09:12:34;13.00;;;8.60;;
4355;SDS011;64374;51.482;7.408;2023-11-18T09:15:22;12.83;;;8.43;;
4355;SDS011;64374;51.482;7.408;2023-11-18T09:18:11;11.50;;;7.72;;
4355;SDS011;64374;51.482;7.408;2023-11-18T09:20:58;12.05;;;8.05;;
4355;SDS011;64374;51.482;7.408;2023-11-18T09:23:50;13.75;;;8.15;;
4355;SDS011;64374;51.482;7.408;2023-11-18T09:26:39;13.27;;;7.40;;
4355;SDS011;64374;51.482;7.408;2023-11-18T09:29:34;11.57;;;7.38;;
4355;SDS011;64374;51.482;7.408;2023-11-18T09:32:24;11.02;;;8.05;;
4355;SDS011;64374;51.482;7.408;2023-11-18T09:34:54;10.90;;;7.25;;
4355;SDS011;64374;51.482;7.408;2023-11-18T09:37:22;10.10;;;7.20;;
4355;SDS011;64374;51.482;7.408;2023-11-18T09:39:50;9.40;;;7.43;;
4355;SDS011;64374;51.482;7.408;2023-11-18T09:42:37;11.30;;;7.85;;
4355;SDS011;64374;51.482;7.408;2023-11-18T09:45:27;12.48;;;7.30;;
4355;SDS011;64374;51.482;7.408;2023-11-18T09:48:15;9.98;;;7.75;;
4355;SDS011;64374;51.482;7.408;2023-11-18T09:51:09;12.25;;;8.07;;
4355;SDS011;64374;51.482;7.408;2023-11-18T09:54:00;10.30;;;8.03;;
4355;SDS011;64374;51.482;7.408;2023-11-18T09:56:51;9.35;;;7.63;;
4355;SDS011;64374;51.482;7.408;2023-11-18T09:59:46;12.65;;;8.48;;
4355;SDS011;64374;51.482;7.408;2023-11-18T10:02:40;11.57;;;7.80;;
4355;SDS011;64374;51.482;7.408;2023-11-18T10:05:41;10.88;;;7.78;;
4355;SDS011;64374;51.482;7.408;2023-11-18T10:08:31;11.02;;;7.90;;
4355;SDS011;64374;51.482;7.408;2023-11-18T10:11:17;11.00;;;7.70;;
4355;SDS011;64374;51.482;7.408;2023-11-18T10:14:09;12.05;;;7.53;;
4355;SDS011;64374;51.482;7.408;2023-11-18T10:17:03;11.80;;;7.88;;
4355;SDS011;64374;51.482;7.408;2023-11-18T10:19:52;11.23;;;7.45;;
4355;SDS011;64374;51.482;7.408;2023-11-18T10:22:43;12.00;;;8.20;;
4355;SDS011;64374;51.482;7.408;2023-11-18T10:25:30;10.20;;;7.50;;
4355;SDS011;64374;51.482;7.408;2023-11-18T10:28:23;8.18;;;6.50;;
4355;SDS011;64374;51.482;7.408;2023-11-18T10:31:13;8.80;;;6.43;;
4355;SDS011;64374;51.482;7.408;2023-11-18T10:34:05;8.00;;;5.30;;
4355;SDS011;64374;51.482;7.408;2023-11-18T10:37:02;9.98;;;5.80;;
4355;SDS011;64374;51.482;7.408;2023-11-18T10:39:54;6.72;;;5.40;;
4355;SDS011;64374;51.482;7.408;2023-11-18T10:42:43;7.15;;;5.28;;
4355;SDS011;64374;51.482;7.408;2023-11-18T10:45:42;8.32;;;5.28;;
4355;SDS011;64374;51.482;7.408;2023-11-18T10:48:32;11.52;;;5.22;;
4355;SDS011;64374;51.482;7.408;2023-11-18T10:51:19;8.98;;;4.70;;
4355;SDS011;64374;51.482;7.408;2023-11-18T10:54:11;8.48;;;4.70;;
4355;SDS011;64374;51.482;7.408;2023-11-18T10:57:04;7.15;;;4.82;;
4355;SDS011;64374;51.482;7.408;2023-11-18T11:00:00;7.07;;;4.85;;
4355;SDS011;64374;51.482;7.408;2023-11-18T11:02:48;6.50;;;4.40;;
4355;SDS011;64374;51.482;7.408;2023-11-18T11:05:44;7.78;;;5.18;;
4355;SDS011;64374;51.482;7.408;2023-11-18T11:08:38;6.95;;;5.05;;
4355;SDS011;64374;51.482;7.408;2023-11-18T11:11:32;9.85;;;4.95;;
4355;SDS011;64374;51.482;7.408;2023-11-18T11:14:26;7.50;;;5.47;;
4355;SDS011;64374;51.482;7.408;2023-11-18T11:17:22;8.93;;;5.55;;
4355;SDS011;64374;51.482;7.408;2023-11-18T11:20:16;8.43;;;5.35;;
4355;SDS011;64374;51.482;7.408;2023-11-18T11:23:13;7.65;;;5.65;;
4355;SDS011;64374;51.482;7.408;2023-11-18T11:26:13;20.30;;;10.73;;
4355;SDS011;64374;51.482;7.408;2023-11-18T11:29:25;8.88;;;5.70;;
4355;SDS011;64374;51.482;7.408;2023-11-18T11:32:18;8.52;;;5.40;;
4355;SDS011;64374;51.482;7.408;2023-11-18T11:35:16;9.10;;;5.28;;
4355;SDS011;64374;51.482;7.408;2023-11-18T11:38:11;6.95;;;5.13;;
4355;SDS011;64374;51.482;7.408;2023-11-18T11:40:58;8.65;;;5.03;;
4355;SDS011;64374;51.482;7.408;2023-11-18T11:43:49;7.70;;;5.20;;
4355;SDS011;64374;51.482;7.408;2023-11-18T11:46:41;7.28;;;5.25;;
4355;SDS011;64374;51.482;7.408;2023-11-18T11:49:33;7.05;;;5.20;;
4355;SDS011;64374;51.482;7.408;2023-11-18T11:52:26;8.05;;;5.03;;
4355;SDS011;64374;51.482;7.408;2023-11-18T11:55:18;14.10;;;5.20;;
4355;SDS011;64374;51.482;7.408;2023-11-18T11:58:26;7.43;;;4.87;;
4355;SDS011;64374;51.482;7.408;2023-11-18T12:01:16;9.05;;;5.40;;
4355;SDS011;64374;51.482;7.408;2023-11-18T12:04:19;8.40;;;5.20;;
4355;SDS011;64374;51.482;7.408;2023-11-18T12:07:14;7.20;;;4.43;;
4355;SDS011;64374;51.482;7.408;2023-11-18T12:10:07;8.15;;;5.00;;
4355;SDS011;64374;51.482;7.408;2023-11-18T12:13:08;5.95;;;4.22;;
4355;SDS011;64374;51.482;7.408;2023-11-18T12:16:02;8.00;;;4.40;;
4355;SDS011;64374;51.482;7.408;2023-11-18T12:18:57;9.13;;;5.30;;
4355;SDS011;64374;51.482;7.408;2023-11-18T12:22:22;8.45;;;4.97;;
4355;SDS011;64374;51.482;7.408;2023-11-18T12:25:28;10.00;;;5.07;;
4355;SDS011;64374;51.482;7.408;2023-11-18T12:28:17;8.93;;;4.97;;
4355;SDS011;64374;51.482;7.408;2023-11-18T12:31:06;7.70;;;4.60;;
4355;SDS011;64374;51.482;7.408;2023-11-18T12:34:04;13.63;;;5.15;;
4355;SDS011;64374;51.482;7.408;2023-11-18T12:37:17;9.52;;;5.00;;
4355;SDS011;64374;51.482;7.408;2023-11-18T12:40:40;6.72;;;5.20;;
4355;SDS011;64374;51.482;7.408;2023-11-18T12:43:56;10.32;;;4.90;;
4355;SDS011;64374;51.482;7.408;2023-11-18T12:47:02;7.50;;;4.80;;
4355;SDS011;64374;51.482;7.408;2023-11-18T12:50:06;7.40;;;4.80;;
4355;SDS011;64374;51.482;7.408;2023-11-18T12:53:03;8.00;;;4.70;;
4355;SDS011;64374;51.482;7.408;2023-11-18T12:55:52;9.85;;;4.90;;
4355;SDS011;64374;51.482;7.408;2023-11-18T12:58:38;5.97;;;3.65;;
4355;SDS011;64374;51.482;7.408;2023-11-18T13:01:25;7.10;;;4.50;;
4355;SDS011;64374;51.482;7.408;2023-11-18T13:04:19;10.57;;;6.72;;
4355;SDS011;64374;51.482;7.408;2023-11-18T13:06:47;14.32;;;6.45;;
4355;SDS011;64374;51.482;7.408;2023-11-18T13:09:19;14.60;;;6.30;;
4355;SDS011;64374;51.482;7.408;2023-11-18T13:11:53;9.73;;;5.50;;
4355;SDS011;64374;51.482;7.408;2023-11-18T13:14:44;13.87;;;6.87;;
4355;SDS011;64374;51.482;7.408;2023-11-18T13:17:32;9.65;;;5.80;;
4355;SDS011;64374;51.482;7.408;2023-11-18T13:20:20;8.27;;;5.43;;
4355;SDS011;64374;51.482;7.408;2023-11-18T13:23:12;8.60;;;4.60;;
4355;SDS011;64374;51.482;7.408;2023-11-18T13:26:05;7.18;;;4.50;;
4355;SDS011;64374;51.482;7.408;2023-11-18T13:28:54;6.68;;;4.55;;
4355;SDS011;64374;51.482;7.408;2023-11-18T13:31:40;6.40;;;4.32;;
4355;SDS011;64374;51.482;7.408;2023-11-18T13:34:27;5.97;;;4.30;;
4355;SDS011;64374;51.482;7.408;2023-11-18T13:37:15;5.63;;;4.07;;
4355;SDS011;64374;51.482;7.408;2023-11-18T13:40:08;5.60;;;4.45;;
4355;SDS011;64374;51.482;7.408;2023-11-18T13:43:03;9.38;;;3.83;;
4355;SDS011;64374;51.482;7.408;2023-11-18T13:46:00;6.85;;;4.75;;
4355;SDS011;64374;51.482;7.408;2023-11-18T13:48:49;6.53;;;4.80;;
4355;SDS011;64374;51.482;7.408;2023-11-18T13:51:37;7.63;;;4.50;;
4355;SDS011;64374;51.482;7.408;2023-11-18T13:54:24;8.65;;;5.28;;
4355;SDS011;64374;51.482;7.408;2023-11-18T13:57:16;7.32;;;4.70;;
4355;SDS011;64374;51.482;7.408;2023-11-18T14:00:05;8.00;;;4.28;;
4355;SDS011;64374;51.482;7.408;2023-11-18T14:02:59;8.82;;;5.15;;
4355;SDS011;64374;51.482;7.408;2023-11-18T14:05:50;8.50;;;5.10;;
4355;SDS011;64374;51.482;7.408;2023-11-18T14:08:40;6.60;;;4.75;;
4355;SDS011;64374;51.482;7.408;2023-11-18T14:11:26;9.98;;;5.70;;
4355;SDS011;64374;51.482;7.408;2023-11-18T14:14:15;11.25;;;5.43;;
4355;SDS011;64374;51.482;7.408;2023-11-18T14:17:04;6.80;;;4.40;;
4355;SDS011;64374;51.482;7.408;2023-11-18T14:19:54;6.93;;;4.60;;
4355;SDS011;64374;51.482;7.408;2023-11-18T14:22:41;5.97;;;4.57;;
4355;SDS011;64374;51.482;7.408;2023-11-18T14:25:30;5.18;;;4.03;;
4355;SDS011;64374;51.482;7.408;2023-11-18T14:28:17;7.18;;;4.50;;
4355;SDS011;64374;51.482;7.408;2023-11-18T14:31:10;6.45;;;4.10;;
4355;SDS011;64374;51.482;7.408;2023-11-18T14:34:14;5.30;;;4.30;;
4355;SDS011;64374;51.482;7.408;2023-11-18T14:37:01;9.00;;;4.55;;
4355;SDS011;64374;51.482;7.408;2023-11-18T14:39:51;6.07;;;4.40;;
4355;SDS011;64374;51.482;7.408;2023-11-18T14:42:39;6.35;;;4.03;;
4355;SDS011;64374;51.482;7.408;2023-11-18T14:45:27;5.72;;;3.88;;
4355;SDS011;64374;51.482;7.408;2023-11-18T14:48:16;4.10;;;3.70;;
4355;SDS011;64374;51.482;7.408;2023-11-18T14:51:04;4.60;;;3.83;;
4355;SDS011;64374;51.482;7.408;2023-11-18T14:53:52;5.93;;;3.80;;
4355;SDS011;64374;51.482;7.408;2023-11-18T14:56:41;7.30;;;4.60;;
4355;SDS011;64374;51.482;7.408;2023-11-18T14:59:30;6.50;;;3.15;;
4355;SDS011;64374;51.482;7.408;2023-11-18T15:02:17;7.10;;;4.30;;
4355;SDS011;64374;51.482;7.408;2023-11-18T15:05:07;7.50;;;4.05;;
4355;SDS011;64374;51.482;7.408;2023-11-18T15:07:56;6.97;;;4.07;;
4355;SDS011;64374;51.482;7.408;2023-11-18T15:10:44;5.45;;;2.70;;
4355;SDS011;64374;51.482;7.408;2023-11-18T15:13:30;9.73;;;3.30;;
4355;SDS011;64374;51.482;7.408;2023-11-18T15:16:18;3.75;;;2.80;;
4355;SDS011;64374;51.482;7.408;2023-11-18T15:19:05;5.68;;;2.50;;
4355;SDS011;64374;51.482;7.408;2023-11-18T15:21:54;7.32;;;2.60;;
4355;SDS011;64374;51.482;7.408;2023-11-18T15:24:42;7.32;;;3.05;;
4355;SDS011;64374;51.482;7.408;2023-11-18T15:27:28;5.05;;;2.67;;
4355;SDS011;64374;51.482;7.408;2023-11-18T15:30:17;4.40;;;2.33;;
4355;SDS011;64374;51.482;7.408;2023-11-18T15:33:07;3.97;;;2.50;;
4355;SDS011;64374;51.482;7.408;2023-11-18T15:35:54;3.35;;;2.40;;
4355;SDS011;64374;51.482;7.408;2023-11-18T15:38:42;6.60;;;2.60;;
4355;SDS011;64374;51.482;7.408;2023-11-18T15:41:30;4.72;;;2.45;;
4355;SDS011;64374;51.482;7.408;2023-11-18T15:44:17;6.30;;;2.70;;
4355;SDS011;64374;51.482;7.408;2023-11-18T15:47:05;4.53;;;2.10;;
4355;SDS011;64374;51.482;7.408;2023-11-18T15:49:54;5.80;;;2.90;;
4355;SDS011;64374;51.482;7.408;2023-11-18T15:52:43;6.80;;;2.70;;
4355;SDS011;64374;51.482;7.408;2023-11-18T15:55:30;3.30;;;2.40;;
4355;SDS011;64374;51.482;7.408;2023-11-18T15:58:27;3.77;;;2.50;;
4355;SDS011;64374;51.482;7.408;2023-11-18T16:01:14;3.58;;;2.10;;
4355;SDS011;64374;51.482;7.408;2023-11-18T16:04:01;6.10;;;2.10;;
4355;SDS011;64374;51.482;7.408;2023-11-18T16:06:48;2.95;;;2.15;;
4355;SDS011;64374;51.482;7.408;2023-11-18T16:09:35;4.50;;;2.00;;
4355;SDS011;64374;51.482;7.408;2023-11-18T16:12:21;5.32;;;2.60;;
4355;SDS011;64374;51.482;7.408;2023-11-18T16:15:10;5.33;;;3.93;;
4355;SDS011;64374;51.482;7.408;2023-11-18T16:17:58;8.90;;;5.13;;
4355;SDS011;64374;51.482;7.408;2023-11-18T16:20:46;3.83;;;3.20;;
4355;SDS011;64374;51.482;7.408;2023-11-18T16:23:33;1.97;;;1.70;;
4355;SDS011;64374;51.482;7.408;2023-11-18T16:26:21;3.05;;;1.80;;
4355;SDS011;64374;51.482;7.408;2023-11-18T16:29:07;2.63;;;2.20;;
4355;SDS011;64374;51.482;7.408;2023-11-18T16:31:55;2.40;;;1.60;;
4355;SDS011;64374;51.482;7.408;2023-11-18T16:34:42;4.43;;;1.70;;
4355;SDS011;64374;51.482;7.408;2023-11-18T16:37:29;3.00;;;2.10;;
4355;SDS011;64374;51.482;7.408;2023-11-18T16:40:15;2.30;;;1.48;;
4355;SDS011;64374;51.482;7.408;2023-11-18T16:42:46;2.30;;;1.60;;